sensor_id;sensor_type;location;lat;lon;timestamp;P1;durP1;ratioP1;P2;durP2;ratioP2
10162;SDS011;5123;52.556;13.384;2023-07-28T00:01:06;2.80;;;2.60;;
10162;SDS011;5123;52.556;13.384;2023-07-28T00:03:39;2.60;;;2.40;;
10162;SDS011;5123;52.556;13.384;2023-07-28T00:06:11;2.60;;;2.40;;
10162;SDS011;5123;52.556;13.384;2023-07-28T00:08:47;2.53;;;1.97;;
10162;SDS011;5123;52.556;13.384;2023-07-28T00:11:19;2.10;;;1.83;;
10162;SDS011;5123;52.556;13.384;2023-07-28T00:13:52;2.20;;;2.00;;
10162;SDS011;5123;52.556;13.384;2023-07-28T00:16:25;2.17;;;1.97;;
10162;SDS011;5123;52.556;13.384;2023-07-28T00:18:57;2.20;;;2.00;;
10162;SDS011;5123;52.556;13.384;2023-07-28T00:21:30;3.43;;;2.33;;
10162;SDS011;5123;52.556;13.384;2023-07-28T00:24:04;2.23;;;2.03;;
10162;SDS011;5123;52.556;13.384;2023-07-28T00:26:37;2.13;;;2.00;;
10162;SDS011;5123;52.556;13.384;2023-07-28T00:29:10;2.80;;;2.43;;
10162;SDS011;5123;52.556;13.384;2023-07-28T00:31:42;2.57;;;2.37;;
10162;SDS011;5123;52.556;13.384;2023-07-28T00:34:15;2.60;;;2.40;;
10162;SDS011;5123;52.556;13.384;2023-07-28T00:36:48;2.83;;;2.60;;
10162;SDS011;5123;52.556;13.384;2023-07-28T00:39:22;3.47;;;3.17;;
10162;SDS011;5123;52.556;13.384;2023-07-28T00:41:54;3.97;;;3.23;;
10162;SDS011;5123;52.556;13.384;2023-07-28T00:44:27;4.03;;;3.57;;
10162;SDS011;5123;52.556;13.384;2023-07-28T00:47:10;4.83;;;3.50;;
10162;SDS011;5123;52.556;13.384;2023-07-28T00:49:42;5.07;;;3.93;;
10162;SDS011;5123;52.556;13.384;2023-07-28T00:52:15;3.80;;;3.50;;
10162;SDS011;5123;52.556;13.384;2023-07-28T00:54:49;3.70;;;3.40;;
10162;SDS011;5123;52.556;13.384;2023-07-28T00:57:22;4.13;;;3.50;;
10162;SDS011;5123;52.556;13.384;2023-07-28T00:59:55;3.70;;;3.40;;
10162;SDS011;5123;52.556;13.384;2023-07-28T01:02:28;4.93;;;3.27;;
10162;SDS011;5123;52.556;13.384;2023-07-28T01:05:00;4.17;;;3.50;;
10162;SDS011;5123;52.556;13.384;2023-07-28T01:07:36;4.80;;;3.80;;
10162;SDS011;5123;52.556;13.384;2023-07-28T01:10:12;4.07;;;3.77;;
10162;SDS011;5123;52.556;13.384;2023-07-28T01:12:45;4.70;;;3.30;;
10162;SDS011;5123;52.556;13.384;2023-07-28T01:15:18;3.80;;;3.50;;
10162;SDS011;5123;52.556;13.384;2023-07-28T01:17:50;3.63;;;3.00;;
10162;SDS011;5123;52.556;13.384;2023-07-28T01:20:28;3.43;;;3.13;;
10162;SDS011;5123;52.556;13.384;2023-07-28T01:23:13;3.70;;;3.23;;
10162;SDS011;5123;52.556;13.384;2023-07-28T01:25:49;5.47;;;3.43;;
10162;SDS011;5123;52.556;13.384;2023-07-28T01:28:24;4.17;;;3.13;;
10162;SDS011;5123;52.556;13.384;2023-07-28T01:30:56;3.80;;;3.50;;
10162;SDS011;5123;52.556;13.384;2023-07-28T01:33:30;4.73;;;3.40;;
10162;SDS011;5123;52.556;13.384;2023-07-28T01:36:04;4.07;;;3.53;;
10162;SDS011;5123;52.556;13.384;2023-07-28T01:38:37;5.00;;;3.23;;
10162;SDS011;5123;52.556;13.384;2023-07-28T01:41:10;3.27;;;2.97;;
10162;SDS011;5123;52.556;13.384;2023-07-28T01:43:45;3.60;;;3.30;;
10162;SDS011;5123;52.556;13.384;2023-07-28T01:46:19;4.70;;;3.13;;
10162;SDS011;5123;52.556;13.384;2023-07-28T01:48:51;3.53;;;3.23;;
10162;SDS011;5123;52.556;13.384;2023-07-28T01:51:24;3.50;;;3.20;;
10162;SDS011;5123;52.556;13.384;2023-07-28T01:53:57;3.27;;;2.80;;
10162;SDS011;5123;52.556;13.384;2023-07-28T01:56:30;3.57;;;3.27;;
10162;SDS011;5123;52.556;13.384;2023-07-28T01:59:04;4.30;;;3.10;;
10162;SDS011;5123;52.556;13.384;2023-07-28T02:01:37;3.93;;;3.20;;
10162;SDS011;5123;52.556;13.384;2023-07-28T02:04:09;4.37;;;3.27;;
10162;SDS011;5123;52.556;13.384;2023-07-28T02:06:45;7.53;;;3.73;;
10162;SDS011;5123;52.556;13.384;2023-07-28T02:09:20;4.43;;;4.03;;
10162;SDS011;5123;52.556;13.384;2023-07-28T02:11:52;5.97;;;3.70;;
10162;SDS011;5123;52.556;13.384;2023-07-28T02:14:34;4.47;;;4.07;;
10162;SDS011;5123;52.556;13.384;2023-07-28T02:17:07;6.00;;;4.47;;
10162;SDS011;5123;52.556;13.384;2023-07-28T02:19:39;5.00;;;4.50;;
10162;SDS011;5123;52.556;13.384;2023-07-28T02:22:12;5.33;;;4.83;;
10162;SDS011;5123;52.556;13.384;2023-07-28T02:24:44;5.43;;;4.93;;
10162;SDS011;5123;52.556;13.384;2023-07-28T02:27:17;6.73;;;5.03;;
10162;SDS011;5123;52.556;13.384;2023-07-28T02:29:51;5.83;;;5.23;;
10162;SDS011;5123;52.556;13.384;2023-07-28T02:32:24;7.47;;;5.80;;
10162;SDS011;5123;52.556;13.384;2023-07-28T02:34:56;7.00;;;5.83;;
10162;SDS011;5123;52.556;13.384;2023-07-28T02:37:29;7.07;;;5.90;;
10162;SDS011;5123;52.556;13.384;2023-07-28T02:40:05;7.67;;;6.83;;
10162;SDS011;5123;52.556;13.384;2023-07-28T02:42:38;7.90;;;6.63;;
10162;SDS011;5123;52.556;13.384;2023-07-28T02:45:12;9.70;;;6.20;;
10162;SDS011;5123;52.556;13.384;2023-07-28T02:47:45;7.77;;;6.03;;
10162;SDS011;5123;52.556;13.384;2023-07-28T02:50:18;8.53;;;6.17;;
10162;SDS011;5123;52.556;13.384;2023-07-28T02:52:51;6.07;;;5.20;;
10162;SDS011;5123;52.556;13.384;2023-07-28T02:55:23;5.87;;;5.20;;
10162;SDS011;5123;52.556;13.384;2023-07-28T02:57:56;6.60;;;5.70;;
10162;SDS011;5123;52.556;13.384;2023-07-28T03:00:30;8.00;;;5.93;;
10162;SDS011;5123;52.556;13.384;2023-07-28T03:03:03;6.27;;;5.67;;
10162;SDS011;5123;52.556;13.384;2023-07-28T03:05:36;8.67;;;6.10;;
10162;SDS011;5123;52.556;13.384;2023-07-28T03:08:08;7.30;;;5.90;;
10162;SDS011;5123;52.556;13.384;2023-07-28T03:10:41;8.77;;;6.37;;
10162;SDS011;5123;52.556;13.384;2023-07-28T03:13:14;8.13;;;6.10;;
10162;SDS011;5123;52.556;13.384;2023-07-28T03:15:48;7.07;;;5.93;;
10162;SDS011;5123;52.556;13.384;2023-07-28T03:18:20;5.47;;;4.97;;
10162;SDS011;5123;52.556;13.384;2023-07-28T03:20:53;7.10;;;5.90;;
10162;SDS011;5123;52.556;13.384;2023-07-28T03:23:26;7.00;;;5.90;;
10162;SDS011;5123;52.556;13.384;2023-07-28T03:26:01;7.23;;;5.90;;
10162;SDS011;5123;52.556;13.384;2023-07-28T03:28:34;6.53;;;5.87;;
10162;SDS011;5123;52.556;13.384;2023-07-28T03:31:08;7.17;;;6.27;;
10162;SDS011;5123;52.556;13.384;2023-07-28T03:33:40;6.77;;;6.10;;
10162;SDS011;5123;52.556;13.384;2023-07-28T03:36:13;6.93;;;6.23;;
10162;SDS011;5123;52.556;13.384;2023-07-28T03:38:49;8.07;;;5.20;;
10162;SDS011;5123;52.556;13.384;2023-07-28T03:41:21;8.83;;;6.37;;
10162;SDS011;5123;52.556;13.384;2023-07-28T03:43:54;6.60;;;6.00;;
10162;SDS011;5123;52.556;13.384;2023-07-28T03:46:28;8.90;;;6.43;;
10162;SDS011;5123;52.556;13.384;2023-07-28T03:49:02;6.77;;;5.93;;
10162;SDS011;5123;52.556;13.384;2023-07-28T03:51:35;6.33;;;5.57;;
10162;SDS011;5123;52.556;13.384;2023-07-28T03:54:08;7.10;;;5.47;;
10162;SDS011;5123;52.556;13.384;2023-07-28T03:56:41;7.93;;;6.47;;
10162;SDS011;5123;52.556;13.384;2023-07-28T03:59:13;7.50;;;6.73;;
10162;SDS011;5123;52.556;13.384;2023-07-28T04:01:47;7.97;;;6.30;;
10162;SDS011;5123;52.556;13.384;2023-07-28T04:04:27;7.67;;;6.50;;
10162;SDS011;5123;52.556;13.384;2023-07-28T04:07:00;8.27;;;7.13;;
10162;SDS011;5123;52.556;13.384;2023-07-28T04:09:35;9.60;;;6.50;;
10162;SDS011;5123;52.556;13.384;2023-07-28T04:12:08;9.00;;;6.67;;
10162;SDS011;5123;52.556;13.384;2023-07-28T04:14:41;9.27;;;6.90;;
10162;SDS011;5123;52.556;13.384;2023-07-28T04:17:15;6.97;;;6.20;;
10162;SDS011;5123;52.556;13.384;2023-07-28T04:19:48;7.07;;;6.37;;
10162;SDS011;5123;52.556;13.384;2023-07-28T04:22:20;7.70;;;6.90;;
10162;SDS011;5123;52.556;13.384;2023-07-28T04:24:53;7.90;;;6.60;;
10162;SDS011;5123;52.556;13.384;2023-07-28T04:27:26;7.50;;;6.50;;
10162;SDS011;5123;52.556;13.384;2023-07-28T04:30:01;8.67;;;6.80;;
10162;SDS011;5123;52.556;13.384;2023-07-28T04:32:35;7.93;;;6.57;;
10162;SDS011;5123;52.556;13.384;2023-07-28T04:35:08;6.57;;;5.97;;
10162;SDS011;5123;52.556;13.384;2023-07-28T04:37:41;7.43;;;6.67;;
10162;SDS011;5123;52.556;13.384;2023-07-28T04:40:14;10.43;;;6.10;;
10162;SDS011;5123;52.556;13.384;2023-07-28T04:42:47;9.43;;;6.27;;
10162;SDS011;5123;52.556;13.384;2023-07-28T04:45:24;7.67;;;6.67;;
10162;SDS011;5123;52.556;13.384;2023-07-28T04:47:58;8.57;;;6.63;;
10162;SDS011;5123;52.556;13.384;2023-07-28T04:50:31;8.97;;;7.20;;
10162;SDS011;5123;52.556;13.384;2023-07-28T04:53:07;8.00;;;6.47;;
10162;SDS011;5123;52.556;13.384;2023-07-28T04:55:39;7.60;;;6.90;;
10162;SDS011;5123;52.556;13.384;2023-07-28T04:58:15;9.53;;;7.13;;
10162;SDS011;5123;52.556;13.384;2023-07-28T05:00:47;8.10;;;7.30;;
10162;SDS011;5123;52.556;13.384;2023-07-28T05:03:24;9.63;;;7.70;;
10162;SDS011;5123;52.556;13.384;2023-07-28T05:05:56;8.90;;;8.00;;
10162;SDS011;5123;52.556;13.384;2023-07-28T05:08:29;7.97;;;7.27;;
10162;SDS011;5123;52.556;13.384;2023-07-28T05:11:02;9.30;;;7.70;;
10162;SDS011;5123;52.556;13.384;2023-07-28T05:13:34;7.90;;;7.13;;
10162;SDS011;5123;52.556;13.384;2023-07-28T05:16:09;7.50;;;6.80;;
10162;SDS011;5123;52.556;13.384;2023-07-28T05:18:53;8.80;;;7.53;;
10162;SDS011;5123;52.556;13.384;2023-07-28T05:21:26;8.53;;;7.50;;
10162;SDS011;5123;52.556;13.384;2023-07-28T05:23:59;9.37;;;7.20;;
10162;SDS011;5123;52.556;13.384;2023-07-28T05:26:31;7.87;;;7.10;;
10162;SDS011;5123;52.556;13.384;2023-07-28T05:29:04;6.63;;;5.90;;
10162;SDS011;5123;52.556;13.384;2023-07-28T05:31:37;7.70;;;6.93;;
10162;SDS011;5123;52.556;13.384;2023-07-28T05:34:11;8.67;;;7.60;;
10162;SDS011;5123;52.556;13.384;2023-07-28T05:36:44;7.37;;;6.67;;
10162;SDS011;5123;52.556;13.384;2023-07-28T05:39:18;7.67;;;6.97;;
10162;SDS011;5123;52.556;13.384;2023-07-28T05:41:51;7.70;;;7.00;;
10162;SDS011;5123;52.556;13.384;2023-07-28T05:44:24;8.07;;;7.27;;
10162;SDS011;5123;52.556;13.384;2023-07-28T05:46:57;7.73;;;7.03;;
10162;SDS011;5123;52.556;13.384;2023-07-28T05:49:31;7.63;;;6.93;;
10162;SDS011;5123;52.556;13.384;2023-07-28T05:52:04;7.67;;;6.90;;
10162;SDS011;5123;52.556;13.384;2023-07-28T05:54:36;8.03;;;6.73;;
10162;SDS011;5123;52.556;13.384;2023-07-28T05:57:09;7.33;;;6.63;;
10162;SDS011;5123;52.556;13.384;2023-07-28T05:59:42;7.97;;;6.63;;
10162;SDS011;5123;52.556;13.384;2023-07-28T06:02:15;7.23;;;6.53;;
10162;SDS011;5123;52.556;13.384;2023-07-28T06:04:48;8.60;;;6.93;;
10162;SDS011;5123;52.556;13.384;2023-07-28T06:07:21;7.17;;;6.43;;
10162;SDS011;5123;52.556;13.384;2023-07-28T06:09:58;7.63;;;6.70;;
10162;SDS011;5123;52.556;13.384;2023-07-28T06:12:31;6.57;;;5.97;;
10162;SDS011;5123;52.556;13.384;2023-07-28T06:15:04;7.73;;;6.23;;
10162;SDS011;5123;52.556;13.384;2023-07-28T06:17:36;7.00;;;6.30;;
10162;SDS011;5123;52.556;13.384;2023-07-28T06:20:11;9.10;;;7.23;;
10162;SDS011;5123;52.556;13.384;2023-07-28T06:22:46;8.57;;;6.90;;
10162;SDS011;5123;52.556;13.384;2023-07-28T06:25:19;7.27;;;6.40;;
10162;SDS011;5123;52.556;13.384;2023-07-28T06:27:53;9.40;;;7.27;;
10162;SDS011;5123;52.556;13.384;2023-07-28T06:30:26;8.80;;;6.57;;
10162;SDS011;5123;52.556;13.384;2023-07-28T06:32:59;6.77;;;6.00;;
10162;SDS011;5123;52.556;13.384;2023-07-28T06:35:35;8.80;;;7.90;;
10162;SDS011;5123;52.556;13.384;2023-07-28T06:38:08;9.70;;;6.80;;
10162;SDS011;5123;52.556;13.384;2023-07-28T06:40:41;8.33;;;7.00;;
10162;SDS011;5123;52.556;13.384;2023-07-28T06:43:21;7.67;;;6.90;;
10162;SDS011;5123;52.556;13.384;2023-07-28T06:45:54;7.80;;;6.87;;
10162;SDS011;5123;52.556;13.384;2023-07-28T06:48:27;7.83;;;7.07;;
10162;SDS011;5123;52.556;13.384;2023-07-28T06:51:04;7.43;;;6.33;;
10162;SDS011;5123;52.556;13.384;2023-07-28T06:53:37;8.73;;;6.17;;
10162;SDS011;5123;52.556;13.384;2023-07-28T06:56:10;7.40;;;6.07;;
10162;SDS011;5123;52.556;13.384;2023-07-28T06:58:43;7.13;;;5.73;;
10162;SDS011;5123;52.556;13.384;2023-07-28T07:01:28;6.60;;;4.87;;
10162;SDS011;5123;52.556;13.384;2023-07-28T07:04:01;6.40;;;5.80;;
10162;SDS011;5123;52.556;13.384;2023-07-28T07:06:34;5.87;;;5.20;;
10162;SDS011;5123;52.556;13.384;2023-07-28T07:09:07;7.80;;;5.13;;
10162;SDS011;5123;52.556;13.384;2023-07-28T07:11:40;5.93;;;5.33;;
10162;SDS011;5123;52.556;13.384;2023-07-28T07:14:13;5.57;;;5.10;;
10162;SDS011;5123;52.556;13.384;2023-07-28T07:16:46;6.00;;;4.83;;
10162;SDS011;5123;52.556;13.384;2023-07-28T07:19:19;6.50;;;4.97;;
10162;SDS011;5123;52.556;13.384;2023-07-28T07:21:53;5.23;;;4.73;;
10162;SDS011;5123;52.556;13.384;2023-07-28T07:24:26;7.43;;;4.50;;
10162;SDS011;5123;52.556;13.384;2023-07-28T07:26:59;5.20;;;4.70;;
10162;SDS011;5123;52.556;13.384;2023-07-28T07:29:31;4.33;;;4.03;;
10162;SDS011;5123;52.556;13.384;2023-07-28T07:32:04;4.43;;;4.03;;
10162;SDS011;5123;52.556;13.384;2023-07-28T07:34:39;4.57;;;4.10;;
10162;SDS011;5123;52.556;13.384;2023-07-28T07:37:13;4.40;;;4.00;;
10162;SDS011;5123;52.556;13.384;2023-07-28T07:39:46;4.17;;;3.40;;
10162;SDS011;5123;52.556;13.384;2023-07-28T07:42:19;4.33;;;4.00;;
10162;SDS011;5123;52.556;13.384;2023-07-28T07:44:52;3.97;;;3.67;;
10162;SDS011;5123;52.556;13.384;2023-07-28T07:47:27;4.37;;;3.97;;
10162;SDS011;5123;52.556;13.384;2023-07-28T07:50:00;4.73;;;3.43;;
10162;SDS011;5123;52.556;13.384;2023-07-28T07:52:34;3.57;;;2.77;;
10162;SDS011;5123;52.556;13.384;2023-07-28T07:55:11;3.37;;;3.07;;
10162;SDS011;5123;52.556;13.384;2023-07-28T07:57:43;5.37;;;3.00;;
10162;SDS011;5123;52.556;13.384;2023-07-28T08:00:16;3.87;;;3.10;;
10162;SDS011;5123;52.556;13.384;2023-07-28T08:02:49;2.87;;;2.67;;
10162;SDS011;5123;52.556;13.384;2023-07-28T08:05:22;2.57;;;2.33;;
10162;SDS011;5123;52.556;13.384;2023-07-28T08:07:59;2.93;;;2.70;;
10162;SDS011;5123;52.556;13.384;2023-07-28T08:10:32;3.20;;;2.70;;
10162;SDS011;5123;52.556;13.384;2023-07-28T08:13:05;3.10;;;2.80;;
10162;SDS011;5123;52.556;13.384;2023-07-28T08:15:38;2.80;;;2.60;;
10162;SDS011;5123;52.556;13.384;2023-07-28T08:18:13;3.30;;;3.00;;
10162;SDS011;5123;52.556;13.384;2023-07-28T08:20:46;3.33;;;3.03;;
10162;SDS011;5123;52.556;13.384;2023-07-28T08:23:20;2.77;;;2.53;;
10162;SDS011;5123;52.556;13.384;2023-07-28T08:25:53;2.40;;;2.20;;
10162;SDS011;5123;52.556;13.384;2023-07-28T08:28:28;2.43;;;2.23;;
10162;SDS011;5123;52.556;13.384;2023-07-28T08:31:01;2.40;;;2.07;;
10162;SDS011;5123;52.556;13.384;2023-07-28T08:33:36;2.20;;;2.10;;
10162;SDS011;5123;52.556;13.384;2023-07-28T08:36:09;2.03;;;1.93;;
10162;SDS011;5123;52.556;13.384;2023-07-28T08:38:45;2.60;;;2.40;;
10162;SDS011;5123;52.556;13.384;2023-07-28T08:41:18;2.50;;;2.30;;
10162;SDS011;5123;52.556;13.384;2023-07-28T08:43:51;2.30;;;2.10;;
10162;SDS011;5123;52.556;13.384;2023-07-28T08:46:25;2.30;;;2.10;;
10162;SDS011;5123;52.556;13.384;2023-07-28T08:49:00;2.20;;;2.00;;
10162;SDS011;5123;52.556;13.384;2023-07-28T08:51:33;2.03;;;1.93;;
10162;SDS011;5123;52.556;13.384;2023-07-28T08:54:07;2.43;;;2.23;;
10162;SDS011;5123;52.556;13.384;2023-07-28T08:56:40;2.43;;;2.23;;
10162;SDS011;5123;52.556;13.384;2023-07-28T08:59:20;2.53;;;2.33;;
10162;SDS011;5123;52.556;13.384;2023-07-28T09:01:54;2.80;;;1.90;;
10162;SDS011;5123;52.556;13.384;2023-07-28T09:04:27;1.73;;;1.63;;
10162;SDS011;5123;52.556;13.384;2023-07-28T09:07:02;2.10;;;2.00;;
10162;SDS011;5123;52.556;13.384;2023-07-28T09:09:38;2.37;;;1.50;;
10162;SDS011;5123;52.556;13.384;2023-07-28T09:12:11;4.17;;;1.87;;
10162;SDS011;5123;52.556;13.384;2023-07-28T09:14:44;2.23;;;1.80;;
10162;SDS011;5123;52.556;13.384;2023-07-28T09:17:18;1.90;;;1.80;;
10162;SDS011;5123;52.556;13.384;2023-07-28T09:19:51;2.13;;;1.93;;
10162;SDS011;5123;52.556;13.384;2023-07-28T09:22:24;3.30;;;2.30;;
10162;SDS011;5123;52.556;13.384;2023-07-28T09:24:59;3.07;;;2.10;;
10162;SDS011;5123;52.556;13.384;2023-07-28T09:27:50;2.97;;;2.00;;
10162;SDS011;5123;52.556;13.384;2023-07-28T09:30:26;5.43;;;2.20;;
10162;SDS011;5123;52.556;13.384;2023-07-28T09:33:00;2.50;;;2.30;;
10162;SDS011;5123;52.556;13.384;2023-07-28T09:35:32;2.83;;;2.63;;
10162;SDS011;5123;52.556;13.384;2023-07-28T09:38:05;3.27;;;2.50;;
10162;SDS011;5123;52.556;13.384;2023-07-28T09:40:40;2.87;;;2.63;;
10162;SDS011;5123;52.556;13.384;2023-07-28T09:43:14;4.33;;;2.80;;
10162;SDS011;5123;52.556;13.384;2023-07-28T09:45:47;2.70;;;2.50;;
10162;SDS011;5123;52.556;13.384;2023-07-28T09:48:21;2.50;;;2.30;;
10162;SDS011;5123;52.556;13.384;2023-07-28T09:50:55;3.37;;;2.30;;
10162;SDS011;5123;52.556;13.384;2023-07-28T09:53:29;2.77;;;2.57;;
10162;SDS011;5123;52.556;13.384;2023-07-28T09:56:05;2.10;;;2.00;;
10162;SDS011;5123;52.556;13.384;2023-07-28T09:58:38;2.67;;;2.47;;
10162;SDS011;5123;52.556;13.384;2023-07-28T10:01:13;3.17;;;2.00;;
10162;SDS011;5123;52.556;13.384;2023-07-28T10:03:47;2.30;;;2.10;;
10162;SDS011;5123;52.556;13.384;2023-07-28T10:06:20;2.00;;;1.90;;
10162;SDS011;5123;52.556;13.384;2023-07-28T10:08:54;2.03;;;1.83;;
10162;SDS011;5123;52.556;13.384;2023-07-28T10:11:28;2.53;;;1.80;;
10162;SDS011;5123;52.556;13.384;2023-07-28T10:14:01;1.93;;;1.80;;
10162;SDS011;5123;52.556;13.384;2023-07-28T10:16:41;1.93;;;1.80;;
10162;SDS011;5123;52.556;13.384;2023-07-28T10:19:19;3.17;;;1.77;;
10162;SDS011;5123;52.556;13.384;2023-07-28T10:21:58;1.80;;;1.70;;
10162;SDS011;5123;52.556;13.384;2023-07-28T10:24:53;3.13;;;2.30;;
10162;SDS011;5123;52.556;13.384;2023-07-28T10:27:31;2.10;;;2.00;;
10162;SDS011;5123;52.556;13.384;2023-07-28T10:30:13;2.87;;;2.60;;
10162;SDS011;5123;52.556;13.384;2023-07-28T10:32:48;2.60;;;2.40;;
10162;SDS011;5123;52.556;13.384;2023-07-28T10:35:24;3.43;;;2.87;;
10162;SDS011;5123;52.556;13.384;2023-07-28T10:37:57;2.70;;;2.50;;
10162;SDS011;5123;52.556;13.384;2023-07-28T10:40:31;2.27;;;2.17;;
10162;SDS011;5123;52.556;13.384;2023-07-28T10:43:07;2.60;;;2.40;;
10162;SDS011;5123;52.556;13.384;2023-07-28T10:45:41;3.60;;;2.33;;
10162;SDS011;5123;52.556;13.384;2023-07-28T10:48:16;2.17;;;2.07;;
10162;SDS011;5123;52.556;13.384;2023-07-28T10:50:49;2.67;;;2.10;;
10162;SDS011;5123;52.556;13.384;2023-07-28T10:53:26;2.63;;;2.37;;
10162;SDS011;5123;52.556;13.384;2023-07-28T10:55:59;3.63;;;2.50;;
10162;SDS011;5123;52.556;13.384;2023-07-28T10:58:36;2.40;;;2.20;;
10162;SDS011;5123;52.556;13.384;2023-07-28T11:01:09;3.30;;;2.00;;
10162;SDS011;5123;52.556;13.384;2023-07-28T11:03:42;2.03;;;1.80;;
10162;SDS011;5123;52.556;13.384;2023-07-28T11:06:16;1.83;;;1.70;;
10162;SDS011;5123;52.556;13.384;2023-07-28T11:08:48;1.63;;;1.53;;
10162;SDS011;5123;52.556;13.384;2023-07-28T11:11:24;1.60;;;1.50;;
10162;SDS011;5123;52.556;13.384;2023-07-28T11:13:58;1.60;;;1.50;;
10162;SDS011;5123;52.556;13.384;2023-07-28T11:16:32;1.30;;;1.20;;
10162;SDS011;5123;52.556;13.384;2023-07-28T11:19:07;1.53;;;1.43;;
10162;SDS011;5123;52.556;13.384;2023-07-28T11:21:41;1.83;;;1.37;;
10162;SDS011;5123;52.556;13.384;2023-07-28T11:24:17;2.77;;;1.63;;
10162;SDS011;5123;52.556;13.384;2023-07-28T11:26:51;2.17;;;1.70;;
10162;SDS011;5123;52.556;13.384;2023-07-28T11:29:25;2.10;;;1.87;;
10162;SDS011;5123;52.556;13.384;2023-07-28T11:31:58;2.27;;;1.80;;
10162;SDS011;5123;52.556;13.384;2023-07-28T11:34:33;1.77;;;1.67;;
10162;SDS011;5123;52.556;13.384;2023-07-28T11:37:10;1.83;;;1.73;;
10162;SDS011;5123;52.556;13.384;2023-07-28T11:39:46;2.37;;;2.17;;
10162;SDS011;5123;52.556;13.384;2023-07-28T11:42:18;2.50;;;2.30;;
10162;SDS011;5123;52.556;13.384;2023-07-28T11:44:53;2.77;;;2.57;;
10162;SDS011;5123;52.556;13.384;2023-07-28T11:47:30;2.20;;;2.00;;
10162;SDS011;5123;52.556;13.384;2023-07-28T11:50:03;1.70;;;1.60;;
10162;SDS011;5123;52.556;13.384;2023-07-28T11:52:36;1.90;;;1.80;;
10162;SDS011;5123;52.556;13.384;2023-07-28T11:55:09;1.87;;;1.77;;
10162;SDS011;5123;52.556;13.384;2023-07-28T11:57:42;2.07;;;1.97;;
10162;SDS011;5123;52.556;13.384;2023-07-28T12:00:20;1.90;;;1.70;;
10162;SDS011;5123;52.556;13.384;2023-07-28T12:03:02;1.60;;;1.50;;
10162;SDS011;5123;52.556;13.384;2023-07-28T12:05:36;3.20;;;1.80;;
10162;SDS011;5123;52.556;13.384;2023-07-28T12:08:32;1.97;;;1.80;;
10162;SDS011;5123;52.556;13.384;2023-07-28T12:11:05;1.63;;;1.53;;
10162;SDS011;5123;52.556;13.384;2023-07-28T12:13:47;1.80;;;1.70;;
10162;SDS011;5123;52.556;13.384;2023-07-28T12:16:38;1.60;;;1.50;;
10162;SDS011;5123;52.556;13.384;2023-07-28T12:19:14;1.70;;;1.60;;
10162;SDS011;5123;52.556;13.384;2023-07-28T12:21:47;2.00;;;1.80;;
10162;SDS011;5123;52.556;13.384;2023-07-28T12:24:20;1.87;;;1.77;;
10162;SDS011;5123;52.556;13.384;2023-07-28T12:26:53;1.70;;;1.60;;
10162;SDS011;5123;52.556;13.384;2023-07-28T12:29:25;2.47;;;1.87;;
10162;SDS011;5123;52.556;13.384;2023-07-28T12:32:03;1.93;;;1.80;;
10162;SDS011;5123;52.556;13.384;2023-07-28T12:34:36;2.17;;;1.70;;
10162;SDS011;5123;52.556;13.384;2023-07-28T12:37:12;2.00;;;1.90;;
10162;SDS011;5123;52.556;13.384;2023-07-28T12:39:44;1.83;;;1.73;;
10162;SDS011;5123;52.556;13.384;2023-07-28T12:42:20;1.90;;;1.80;;
10162;SDS011;5123;52.556;13.384;2023-07-28T12:45:13;1.80;;;1.70;;
10162;SDS011;5123;52.556;13.384;2023-07-28T12:47:54;1.87;;;1.60;;
10162;SDS011;5123;52.556;13.384;2023-07-28T12:50:30;2.33;;;1.77;;
10162;SDS011;5123;52.556;13.384;2023-07-28T12:53:12;2.47;;;1.83;;
10162;SDS011;5123;52.556;13.384;2023-07-28T12:55:49;3.87;;;2.70;;
10162;SDS011;5123;52.556;13.384;2023-07-28T12:58:24;2.17;;;2.00;;
10162;SDS011;5123;52.556;13.384;2023-07-28T13:01:00;2.00;;;1.77;;
10162;SDS011;5123;52.556;13.384;2023-07-28T13:03:36;1.80;;;1.70;;
10162;SDS011;5123;52.556;13.384;2023-07-28T13:06:09;2.53;;;1.53;;
10162;SDS011;5123;52.556;13.384;2023-07-28T13:08:42;1.70;;;1.60;;
10162;SDS011;5123;52.556;13.384;2023-07-28T13:11:20;2.37;;;2.03;;
10162;SDS011;5123;52.556;13.384;2023-07-28T13:13:53;1.70;;;1.60;;
10162;SDS011;5123;52.556;13.384;2023-07-28T13:16:26;2.50;;;2.13;;
10162;SDS011;5123;52.556;13.384;2023-07-28T13:19:00;2.93;;;2.73;;
10162;SDS011;5123;52.556;13.384;2023-07-28T13:21:33;3.03;;;1.70;;
10162;SDS011;5123;52.556;13.384;2023-07-28T13:24:06;2.00;;;1.90;;
10162;SDS011;5123;52.556;13.384;2023-07-28T13:26:39;1.90;;;1.73;;
10162;SDS011;5123;52.556;13.384;2023-07-28T13:29:11;1.80;;;1.70;;
10162;SDS011;5123;52.556;13.384;2023-07-28T13:31:44;1.90;;;1.80;;
10162;SDS011;5123;52.556;13.384;2023-07-28T13:34:18;2.17;;;1.97;;
10162;SDS011;5123;52.556;13.384;2023-07-28T13:36:51;1.50;;;1.40;;
10162;SDS011;5123;52.556;13.384;2023-07-28T13:39:23;1.80;;;1.70;;
10162;SDS011;5123;52.556;13.384;2023-07-28T13:41:56;3.57;;;2.23;;
10162;SDS011;5123;52.556;13.384;2023-07-28T13:44:29;3.00;;;2.10;;
10162;SDS011;5123;52.556;13.384;2023-07-28T13:47:04;1.77;;;1.60;;
10162;SDS011;5123;52.556;13.384;2023-07-28T13:49:38;1.87;;;1.67;;
10162;SDS011;5123;52.556;13.384;2023-07-28T13:52:14;1.80;;;1.70;;
10162;SDS011;5123;52.556;13.384;2023-07-28T13:54:52;3.50;;;3.20;;
10162;SDS011;5123;52.556;13.384;2023-07-28T13:57:28;2.57;;;2.37;;
10162;SDS011;5123;52.556;13.384;2023-07-28T14:00:00;2.70;;;2.50;;
10162;SDS011;5123;52.556;13.384;2023-07-28T14:02:33;1.57;;;1.47;;
10162;SDS011;5123;52.556;13.384;2023-07-28T14:05:10;1.40;;;1.30;;
10162;SDS011;5123;52.556;13.384;2023-07-28T14:07:42;2.40;;;2.20;;
10162;SDS011;5123;52.556;13.384;2023-07-28T14:10:16;2.23;;;2.00;;
10162;SDS011;5123;52.556;13.384;2023-07-28T14:12:49;2.87;;;1.93;;
10162;SDS011;5123;52.556;13.384;2023-07-28T14:15:21;2.40;;;2.20;;
10162;SDS011;5123;52.556;13.384;2023-07-28T14:17:55;2.93;;;2.73;;
10162;SDS011;5123;52.556;13.384;2023-07-28T14:20:29;1.90;;;1.80;;
10162;SDS011;5123;52.556;13.384;2023-07-28T14:23:08;2.63;;;1.87;;
10162;SDS011;5123;52.556;13.384;2023-07-28T14:25:52;1.90;;;1.80;;
10162;SDS011;5123;52.556;13.384;2023-07-28T14:28:25;2.13;;;1.43;;
10162;SDS011;5123;52.556;13.384;2023-07-28T14:30:57;1.77;;;1.67;;
10162;SDS011;5123;52.556;13.384;2023-07-28T14:33:31;1.93;;;1.83;;
10162;SDS011;5123;52.556;13.384;2023-07-28T14:36:08;1.80;;;1.70;;
10162;SDS011;5123;52.556;13.384;2023-07-28T14:38:41;1.90;;;1.80;;
10162;SDS011;5123;52.556;13.384;2023-07-28T14:41:15;1.83;;;1.73;;
10162;SDS011;5123;52.556;13.384;2023-07-28T14:43:48;1.80;;;1.70;;
10162;SDS011;5123;52.556;13.384;2023-07-28T14:46:20;2.40;;;1.97;;
10162;SDS011;5123;52.556;13.384;2023-07-28T14:48:54;2.20;;;2.00;;
10162;SDS011;5123;52.556;13.384;2023-07-28T14:51:31;2.07;;;1.90;;
10162;SDS011;5123;52.556;13.384;2023-07-28T14:54:04;2.77;;;2.53;;
10162;SDS011;5123;52.556;13.384;2023-07-28T14:56:37;2.70;;;2.50;;
10162;SDS011;5123;52.556;13.384;2023-07-28T14:59:16;3.43;;;1.97;;
10162;SDS011;5123;52.556;13.384;2023-07-28T15:01:49;1.60;;;1.50;;
10162;SDS011;5123;52.556;13.384;2023-07-28T15:04:22;3.50;;;2.10;;
10162;SDS011;5123;52.556;13.384;2023-07-28T15:06:56;2.40;;;2.20;;
10162;SDS011;5123;52.556;13.384;2023-07-28T15:09:29;3.57;;;3.10;;
10162;SDS011;5123;52.556;13.384;2023-07-28T15:12:01;2.43;;;2.10;;
10162;SDS011;5123;52.556;13.384;2023-07-28T15:14:34;2.80;;;2.60;;
10162;SDS011;5123;52.556;13.384;2023-07-28T15:17:10;2.13;;;1.80;;
10162;SDS011;5123;52.556;13.384;2023-07-28T15:19:43;3.07;;;1.93;;
10162;SDS011;5123;52.556;13.384;2023-07-28T15:22:19;2.33;;;2.07;;
10162;SDS011;5123;52.556;13.384;2023-07-28T15:24:54;2.57;;;1.90;;
10162;SDS011;5123;52.556;13.384;2023-07-28T15:27:27;2.00;;;1.90;;
10162;SDS011;5123;52.556;13.384;2023-07-28T15:30:00;1.97;;;1.87;;